createdAt,value
2018-08-13T00:00:59.580Z,8.17
2018-08-13T00:03:27.864Z,9.10
2018-08-13T00:05:56.179Z,7.40
2018-08-13T00:08:24.479Z,7.97
2018-08-13T00:10:52.781Z,8.10
2018-08-13T00:13:21.064Z,8.03
2018-08-13T00:15:49.413Z,7.50
2018-08-13T00:18:17.669Z,8.80
2018-08-13T00:20:45.967Z,7.50
2018-08-13T00:23:14.225Z,8.43
2018-08-13T00:25:42.520Z,7.73
2018-08-13T00:28:11.285Z,8.50
2018-08-13T00:30:40.103Z,8.00
2018-08-13T00:33:09.672Z,8.30
2018-08-13T00:35:37.982Z,7.83
2018-08-13T00:38:06.537Z,7.10
2018-08-13T00:40:34.909Z,7.93
2018-08-13T00:43:03.273Z,7.13
2018-08-13T00:45:32.598Z,7.20
2018-08-13T00:48:00.917Z,6.57
2018-08-13T00:50:30.298Z,6.57
2018-08-13T00:52:58.549Z,6.30
2018-08-13T00:55:26.829Z,7.00
2018-08-13T00:57:55.105Z,6.40
2018-08-13T01:00:23.599Z,6.40
2018-08-13T01:02:52.288Z,33.57
2018-08-13T01:05:22.073Z,8.20
2018-08-13T01:07:50.699Z,7.57
2018-08-13T01:10:20.361Z,7.50
2018-08-13T01:12:48.710Z,7.33
2018-08-13T01:15:18.502Z,8.10
2018-08-13T01:17:48.085Z,7.80
2018-08-13T01:20:19.187Z,8.00
2018-08-13T01:22:47.548Z,8.10
2018-08-13T01:25:17.389Z,7.20
2018-08-13T01:27:46.803Z,8.00
2018-08-13T01:30:17.456Z,7.43
2018-08-13T01:32:46.857Z,8.17
2018-08-13T01:35:15.133Z,7.90
2018-08-13T01:37:43.454Z,6.50
2018-08-13T01:40:12.426Z,6.70
2018-08-13T01:42:40.753Z,7.53
2018-08-13T01:45:11.580Z,8.07
2018-08-13T01:47:40.718Z,6.63
2018-08-13T01:50:10.597Z,7.20
2018-08-13T01:52:40.228Z,7.10
2018-08-13T01:55:10.630Z,7.17
2018-08-13T01:57:39.033Z,6.73
2018-08-13T02:00:16.701Z,6.93
2018-08-13T02:02:45.042Z,7.80
2018-08-13T02:05:13.305Z,7.50
2018-08-13T02:07:41.949Z,7.87
2018-08-13T02:10:12.276Z,6.70
2018-08-13T02:12:40.996Z,8.17
2018-08-13T02:15:09.438Z,7.67
2018-08-13T02:17:37.748Z,8.47
2018-08-13T02:20:07.256Z,8.20
2018-08-13T02:22:35.672Z,8.30
2018-08-13T02:25:04.601Z,7.30
2018-08-13T02:27:32.882Z,6.97
2018-08-13T02:30:01.198Z,7.80
2018-08-13T02:32:29.496Z,7.50
2018-08-13T02:34:57.777Z,7.37
2018-08-13T02:37:32.308Z,8.00
2018-08-13T02:40:00.652Z,7.43
2018-08-13T02:42:29.114Z,7.00
2018-08-13T02:44:57.393Z,7.33
2018-08-13T02:47:25.653Z,8.70
2018-08-13T02:49:54.957Z,8.67
2018-08-13T02:52:23.228Z,7.60
2018-08-13T02:54:51.509Z,8.20
2018-08-13T02:57:19.773Z,8.23
2018-08-13T02:59:48.057Z,8.03
2018-08-13T03:02:18.364Z,7.97
2018-08-13T03:04:46.706Z,8.20
2018-08-13T03:07:14.913Z,8.43
2018-08-13T03:09:43.185Z,7.50
2018-08-13T03:12:11.505Z,8.37
2018-08-13T03:14:39.806Z,8.83
2018-08-13T03:17:09.447Z,8.10
2018-08-13T03:19:37.709Z,8.20
2018-08-13T03:22:06.017Z,7.27
2018-08-13T03:24:34.260Z,7.83
2018-08-13T03:27:03.636Z,7.97
2018-08-13T03:29:31.922Z,7.63
2018-08-13T03:32:00.209Z,8.50
2018-08-13T03:34:28.472Z,7.63
2018-08-13T03:36:56.763Z,9.37
2018-08-13T03:39:25.073Z,8.20
2018-08-13T03:41:53.356Z,8.47
2018-08-13T03:44:21.621Z,7.33
2018-08-13T03:46:49.926Z,8.50
2018-08-13T03:49:18.169Z,8.77
2018-08-13T03:51:47.553Z,8.17
2018-08-13T03:54:15.810Z,9.10
2018-08-13T03:56:44.190Z,9.00
2018-08-13T03:59:12.492Z,9.03
2018-08-13T04:01:40.804Z,10.17
2018-08-13T04:04:09.111Z,9.37
2018-08-13T04:06:37.349Z,10.00
2018-08-13T04:09:08.328Z,8.43
2018-08-13T04:11:37.027Z,9.60
2018-08-13T04:14:06.245Z,9.10
2018-08-13T04:16:34.488Z,10.00
2018-08-13T04:19:03.274Z,10.70
2018-08-13T04:21:31.527Z,9.97
2018-08-13T04:23:59.837Z,9.97
2018-08-13T04:26:28.109Z,8.30
2018-08-13T04:28:56.392Z,9.10
2018-08-13T04:31:24.652Z,9.23
2018-08-13T04:33:52.925Z,9.20
2018-08-13T04:36:21.204Z,8.00
2018-08-13T04:38:49.461Z,7.33
2018-08-13T04:41:17.749Z,7.10
2018-08-13T04:43:46.049Z,7.17
2018-08-13T04:46:14.296Z,6.27
2018-08-13T04:48:42.577Z,6.60
2018-08-13T04:51:10.828Z,7.03
2018-08-13T04:53:39.113Z,5.73
2018-08-13T04:56:07.382Z,7.20
2018-08-13T04:58:35.672Z,6.60
2018-08-13T05:01:03.981Z,7.10
2018-08-13T05:03:32.296Z,6.03
2018-08-13T05:06:00.545Z,5.77
2018-08-13T05:08:28.811Z,5.37
2018-08-13T05:10:57.077Z,5.90
2018-08-13T05:13:25.336Z,5.97
2018-08-13T05:15:53.669Z,5.90
2018-08-13T05:18:22.312Z,6.23
2018-08-13T05:20:50.604Z,5.77
2018-08-13T05:23:18.940Z,5.90
2018-08-13T05:25:47.269Z,5.33
2018-08-13T05:28:15.620Z,6.60
2018-08-13T05:30:43.917Z,6.03
2018-08-13T05:33:12.200Z,5.17
2018-08-13T05:35:40.489Z,5.90
2018-08-13T05:38:09.756Z,5.60
2018-08-13T05:40:38.077Z,5.87
2018-08-13T05:43:06.632Z,5.70
2018-08-13T05:45:34.973Z,5.13
2018-08-13T05:48:03.388Z,5.53
2018-08-13T05:50:34.172Z,5.50
2018-08-13T05:53:02.540Z,6.17
2018-08-13T05:55:30.753Z,5.30
2018-08-13T05:57:59.473Z,5.77
2018-08-13T06:00:27.721Z,5.40
2018-08-13T06:02:56.070Z,5.63
2018-08-13T06:05:24.293Z,5.10
2018-08-13T06:07:52.595Z,5.27
2018-08-13T06:10:20.904Z,5.83
2018-08-13T06:12:49.192Z,5.50
2018-08-13T06:15:17.457Z,6.13
2018-08-13T06:17:45.717Z,5.40
2018-08-13T06:20:14.038Z,5.40
2018-08-13T06:22:43.784Z,6.63
2018-08-13T06:25:12.972Z,6.93
2018-08-13T06:27:41.265Z,6.10
2018-08-13T06:30:12.084Z,5.90
2018-08-13T06:32:41.222Z,6.17
2018-08-13T06:35:09.821Z,6.30
2018-08-13T06:37:38.084Z,6.97
2018-08-13T06:40:06.997Z,6.13
2018-08-13T06:42:35.248Z,6.80
2018-08-13T06:45:03.765Z,6.30
2018-08-13T06:47:32.025Z,6.47
2018-08-13T06:50:00.370Z,6.13
2018-08-13T06:52:28.625Z,6.93
2018-08-13T06:54:56.913Z,6.33
2018-08-13T06:57:25.212Z,6.80
2018-08-13T06:59:53.512Z,5.87
2018-08-13T07:02:21.821Z,6.50
2018-08-13T07:04:50.116Z,6.13
2018-08-13T07:07:18.453Z,6.20
2018-08-13T07:09:46.757Z,5.93
2018-08-13T07:12:15.073Z,5.90
2018-08-13T07:14:43.441Z,5.57
2018-08-13T07:17:11.736Z,6.20
2018-08-13T07:19:39.969Z,6.70
2018-08-13T07:22:08.298Z,6.27
2018-08-13T07:24:37.026Z,6.13
2018-08-13T07:27:05.317Z,6.27
2018-08-13T07:29:33.564Z,6.00
2018-08-13T07:32:01.853Z,6.87
2018-08-13T07:34:30.108Z,5.80
2018-08-13T07:36:58.393Z,6.33
2018-08-13T07:39:26.742Z,6.20
2018-08-13T07:41:54.997Z,6.37
2018-08-13T07:44:23.253Z,5.33
2018-08-13T07:46:52.612Z,5.90
2018-08-13T07:49:20.877Z,5.30
2018-08-13T07:51:49.220Z,5.60
2018-08-13T07:54:17.405Z,6.03
2018-08-13T07:56:45.682Z,6.13
2018-08-13T07:59:13.940Z,6.40
2018-08-13T08:01:42.193Z,6.23
2018-08-13T08:04:10.492Z,5.70
2018-08-13T08:06:39.941Z,5.70
2018-08-13T08:09:10.727Z,5.33
2018-08-13T08:11:39.820Z,5.53
2018-08-13T08:14:08.592Z,6.10
2018-08-13T08:16:36.842Z,5.20
2018-08-13T08:19:05.117Z,5.27
2018-08-13T08:21:33.397Z,4.77
2018-08-13T08:24:02.110Z,5.20
2018-08-13T08:26:30.709Z,5.47
2018-08-13T08:28:59.003Z,4.80
2018-08-13T08:31:27.325Z,4.77
2018-08-13T08:33:55.641Z,4.67
2018-08-13T08:36:23.974Z,5.07
2018-08-13T08:38:52.552Z,4.90
2018-08-13T08:41:20.877Z,4.33
2018-08-13T08:43:49.130Z,5.30
2018-08-13T08:46:17.417Z,5.13
2018-08-13T08:48:45.661Z,4.57
2018-08-13T08:51:14.061Z,4.30
2018-08-13T08:53:42.420Z,4.50
2018-08-13T08:56:10.589Z,3.80
2018-08-13T08:58:38.868Z,4.50
2018-08-13T09:01:07.141Z,3.80
2018-08-13T09:03:35.543Z,3.37
2018-08-13T09:06:04.215Z,4.10
2018-08-13T09:08:32.410Z,3.83
2018-08-13T09:11:00.676Z,3.20
2018-08-13T09:13:28.949Z,3.33
2018-08-13T09:15:57.246Z,3.60
2018-08-13T09:18:36.689Z,3.23
2018-08-13T09:21:16.245Z,2.90
2018-08-13T09:23:55.942Z,3.40
2018-08-13T09:26:35.632Z,3.00
2018-08-13T09:29:15.105Z,3.53
2018-08-13T09:32:27.223Z,2.80
2018-08-13T09:35:17.150Z,2.60
2018-08-13T09:37:45.546Z,2.70
2018-08-13T09:40:13.888Z,2.70
2018-08-13T09:42:42.252Z,2.70
2018-08-13T09:45:10.517Z,2.50
2018-08-13T09:47:39.467Z,3.00
2018-08-13T09:50:10.177Z,3.17
2018-08-13T09:52:38.481Z,2.87
2018-08-13T09:55:07.960Z,2.60
2018-08-13T09:57:36.249Z,3.03
2018-08-13T10:00:07.169Z,3.53
2018-08-13T10:02:35.441Z,5.23
2018-08-13T10:05:03.763Z,7.30
2018-08-13T10:07:32.041Z,5.80
2018-08-13T10:10:00.325Z,5.30
2018-08-13T10:12:28.581Z,4.80
2018-08-13T10:14:56.960Z,3.70
2018-08-13T10:17:25.287Z,3.70
2018-08-13T10:19:53.584Z,3.50
2018-08-13T10:22:22.046Z,3.53
2018-08-13T10:24:50.344Z,3.70
2018-08-13T10:27:18.617Z,3.50
2018-08-13T10:29:47.002Z,3.63
2018-08-13T10:32:15.246Z,3.60
2018-08-13T10:34:44.589Z,2.90
2018-08-13T10:37:12.925Z,3.77
2018-08-13T10:39:41.206Z,3.73
2018-08-13T10:42:09.502Z,3.53
2018-08-13T10:44:37.797Z,4.37
2018-08-13T10:47:06.077Z,3.47
2018-08-13T10:49:34.397Z,4.10
2018-08-13T10:52:02.645Z,4.53
2018-08-13T10:54:30.912Z,2.70
2018-08-13T10:56:59.204Z,2.43
2018-08-13T10:59:27.454Z,2.33
2018-08-13T11:01:55.742Z,2.10
2018-08-13T11:04:24.024Z,2.40
2018-08-13T11:06:52.322Z,1.70
2018-08-13T11:09:20.564Z,2.40
2018-08-13T11:11:48.876Z,2.17
2018-08-13T11:14:17.153Z,2.00
2018-08-13T11:16:45.455Z,2.33
2018-08-13T11:19:13.708Z,2.53
2018-08-13T11:21:42.253Z,2.57
2018-08-13T11:24:10.493Z,3.33
2018-08-13T11:26:38.741Z,2.80
2018-08-13T11:29:08.109Z,2.30
2018-08-13T11:31:36.419Z,2.50
2018-08-13T11:34:04.705Z,3.20
2018-08-13T11:36:32.969Z,2.70
2018-08-13T11:39:01.282Z,2.57
2018-08-13T11:41:30.618Z,2.10
2018-08-13T11:43:58.897Z,2.57
2018-08-13T11:46:27.300Z,2.13
2018-08-13T11:48:55.585Z,2.20
2018-08-13T11:51:23.885Z,2.60
2018-08-13T11:53:52.168Z,2.20
2018-08-13T11:56:20.587Z,1.90
2018-08-13T11:58:48.977Z,1.93
2018-08-13T12:01:17.272Z,1.70
2018-08-13T12:03:45.612Z,1.80
2018-08-13T12:06:13.857Z,2.43
2018-08-13T12:08:42.193Z,2.00
2018-08-13T12:11:10.525Z,1.67
2018-08-13T12:13:38.820Z,2.00
2018-08-13T12:16:07.229Z,2.20
2018-08-13T12:18:35.495Z,1.50
2018-08-13T12:21:03.777Z,2.00
2018-08-13T12:23:32.021Z,1.70
2018-08-13T12:26:00.309Z,2.00
2018-08-13T12:28:28.548Z,2.00
2018-08-13T12:30:56.958Z,1.87
2018-08-13T12:33:25.217Z,2.27
2018-08-13T12:35:53.509Z,1.90
2018-08-13T12:38:21.825Z,2.07
2018-08-13T12:40:50.121Z,2.80
2018-08-13T12:43:18.377Z,2.53
2018-08-13T12:45:46.790Z,2.83
2018-08-13T12:48:15.109Z,2.87
2018-08-13T12:50:43.421Z,3.17
2018-08-13T12:53:11.717Z,3.27
2018-08-13T12:55:40.134Z,2.83
2018-08-13T12:58:08.421Z,2.67
2018-08-13T13:00:36.758Z,3.20
2018-08-13T13:03:05.061Z,3.63
2018-08-13T13:05:33.449Z,4.00
2018-08-13T13:08:01.754Z,4.00
2018-08-13T13:10:30.044Z,4.13
2018-08-13T13:12:58.375Z,3.37
2018-08-13T13:15:26.625Z,3.30
2018-08-13T13:17:54.968Z,3.90
2018-08-13T13:20:23.880Z,3.67
2018-08-13T13:22:52.609Z,3.30
2018-08-13T13:25:21.244Z,4.60
2018-08-13T13:27:49.625Z,4.13
2018-08-13T13:30:18.293Z,4.00
2018-08-13T13:32:46.825Z,3.50
2018-08-13T13:35:16.436Z,3.93
2018-08-13T13:37:44.716Z,4.27
2018-08-13T13:40:15.690Z,4.00
2018-08-13T13:42:44.001Z,5.83
2018-08-13T13:45:12.782Z,3.87
2018-08-13T13:47:41.143Z,3.10
2018-08-13T13:50:13.983Z,3.27
2018-08-13T13:52:42.496Z,3.13
2018-08-13T13:55:12.180Z,2.80
2018-08-13T13:57:40.494Z,3.10
2018-08-13T14:00:15.405Z,2.90
2018-08-13T14:02:43.770Z,3.10
2018-08-13T14:05:12.082Z,2.80
2018-08-13T14:07:40.341Z,2.50
2018-08-13T14:10:14.159Z,2.37
2018-08-13T14:12:42.757Z,2.77
2018-08-13T14:15:13.129Z,2.37
2018-08-13T14:17:42.105Z,2.67
2018-08-13T14:20:11.135Z,2.50
2018-08-13T14:22:40.180Z,2.13
2018-08-13T14:25:10.313Z,2.80
2018-08-13T14:27:38.665Z,2.80
2018-08-13T14:30:11.048Z,2.87
2018-08-13T14:32:39.323Z,2.30
2018-08-13T14:35:07.697Z,2.83
2018-08-13T14:37:36.047Z,3.17
2018-08-13T14:40:04.677Z,2.57
2018-08-13T14:42:32.976Z,4.00
2018-08-13T14:45:01.247Z,3.40
2018-08-13T14:47:29.561Z,3.43
2018-08-13T14:49:57.851Z,2.90
2018-08-13T14:52:26.106Z,2.90
2018-08-13T14:54:57.813Z,2.70
2018-08-13T14:57:26.435Z,3.13
2018-08-13T14:59:54.789Z,3.40
2018-08-13T15:02:23.057Z,3.10
2018-08-13T15:04:51.334Z,3.47
2018-08-13T15:07:19.629Z,2.80
2018-08-13T15:09:47.945Z,2.97
2018-08-13T15:12:16.236Z,2.53
2018-08-13T15:14:44.545Z,2.77
2018-08-13T15:17:12.838Z,3.33
2018-08-13T15:19:48.461Z,3.50
2018-08-13T15:22:16.789Z,3.43
2018-08-13T15:24:45.029Z,3.13
2018-08-13T15:27:13.409Z,3.27
2018-08-13T15:29:41.581Z,3.30
2018-08-13T15:32:09.873Z,3.27
2018-08-13T15:34:38.125Z,3.63
2018-08-13T15:37:06.405Z,3.50
2018-08-13T15:39:34.660Z,4.27
2018-08-13T15:42:03.090Z,3.33
2018-08-13T15:44:31.502Z,4.03
2018-08-13T15:47:00.033Z,4.97
2018-08-13T15:49:28.285Z,4.37
2018-08-13T15:51:56.681Z,4.17
2018-08-13T15:54:24.993Z,4.27
2018-08-13T15:56:53.277Z,4.00
2018-08-13T15:59:22.596Z,4.90
2018-08-13T16:01:50.930Z,4.50
2018-08-13T16:04:20.209Z,4.90
2018-08-13T16:06:49.477Z,5.00
2018-08-13T16:09:17.793Z,4.47
2018-08-13T16:11:46.036Z,4.80
2018-08-13T16:14:14.349Z,6.00
2018-08-13T16:16:42.600Z,5.13
2018-08-13T16:19:10.902Z,5.63
2018-08-13T16:21:39.231Z,5.40
2018-08-13T16:24:07.549Z,6.50
2018-08-13T16:26:35.876Z,5.30
2018-08-13T16:29:04.169Z,6.27
2018-08-13T16:31:32.608Z,5.30
2018-08-13T16:34:00.888Z,6.30
2018-08-13T16:36:29.133Z,6.20
2018-08-13T16:38:57.408Z,7.60
2018-08-13T16:41:25.684Z,6.27
2018-08-13T16:43:54.117Z,6.10
2018-08-13T16:46:22.374Z,8.03
2018-08-13T16:48:50.665Z,6.53
2018-08-13T16:51:18.948Z,6.40
2018-08-13T16:53:47.262Z,6.53
2018-08-13T16:56:15.627Z,6.27
2018-08-13T16:58:43.923Z,6.43
2018-08-13T17:01:12.267Z,6.70
2018-08-13T17:03:40.606Z,6.70
2018-08-13T17:06:08.884Z,6.50
2018-08-13T17:08:37.202Z,6.60
2018-08-13T17:11:05.882Z,7.40
2018-08-13T17:13:34.204Z,8.10
2018-08-13T17:16:03.581Z,6.90
2018-08-13T17:18:32.053Z,7.83
2018-08-13T17:21:01.444Z,7.20
2018-08-13T17:23:29.697Z,7.00
2018-08-13T17:25:58.005Z,7.10
2018-08-13T17:28:26.251Z,6.97
2018-08-13T17:30:54.532Z,8.20
2018-08-13T17:33:22.809Z,7.20
2018-08-13T17:35:51.169Z,6.87
2018-08-13T17:38:19.439Z,6.63
2018-08-13T17:40:47.770Z,7.30
2018-08-13T17:43:16.341Z,5.70
2018-08-13T17:45:44.490Z,7.03
2018-08-13T17:48:12.753Z,6.80
2018-08-13T17:50:41.049Z,7.20
2018-08-13T17:53:10.257Z,6.53
2018-08-13T17:55:38.677Z,6.97
2018-08-13T17:58:08.052Z,6.90
2018-08-13T18:00:36.328Z,7.20
2018-08-13T18:03:04.590Z,7.80
2018-08-13T18:05:32.864Z,7.47
2018-08-13T18:08:01.112Z,7.67
2018-08-13T18:10:32.565Z,7.40
2018-08-13T18:13:02.549Z,7.70
2018-08-13T18:15:31.262Z,8.87
2018-08-13T18:17:59.597Z,8.17
2018-08-13T18:20:28.265Z,8.77
2018-08-13T18:22:56.601Z,7.77
2018-08-13T18:25:24.941Z,8.37
2018-08-13T18:27:53.564Z,7.37
2018-08-13T18:30:25.021Z,7.23
2018-08-13T18:32:53.748Z,6.10
2018-08-13T18:35:22.032Z,7.30
2018-08-13T18:37:50.321Z,7.10
2018-08-13T18:40:22.265Z,7.17
2018-08-13T18:42:50.835Z,6.70
2018-08-13T18:45:19.097Z,7.57
2018-08-13T18:47:48.177Z,8.13
2018-08-13T18:50:17.980Z,7.10
2018-08-13T18:52:46.649Z,7.90
2018-08-13T18:55:16.494Z,7.00
2018-08-13T18:57:44.990Z,6.97
2018-08-13T19:00:17.869Z,7.03
2018-08-13T19:02:46.159Z,8.10
2018-08-13T19:05:16.088Z,6.70
2018-08-13T19:07:45.217Z,6.83
2018-08-13T19:10:14.486Z,7.50
2018-08-13T19:12:42.758Z,7.60
2018-08-13T19:15:13.205Z,7.30
2018-08-13T19:17:41.505Z,6.40
2018-08-13T19:20:11.723Z,6.10
2018-08-13T19:22:40.044Z,5.83
2018-08-13T19:25:12.577Z,5.87
2018-08-13T19:27:41.116Z,6.67
2018-08-13T19:30:10.729Z,9.13
2018-08-13T19:32:38.996Z,8.80
2018-08-13T19:35:08.142Z,8.57
2018-08-13T19:37:36.393Z,8.80
2018-08-13T19:40:07.149Z,8.77
2018-08-13T19:42:35.502Z,7.50
2018-08-13T19:45:04.083Z,8.80
2018-08-13T19:47:32.339Z,8.60
2018-08-13T19:50:00.663Z,7.90
2018-08-13T19:52:28.938Z,9.20
2018-08-13T19:54:57.437Z,8.33
2018-08-13T19:57:25.723Z,9.13
2018-08-13T19:59:53.998Z,9.03
2018-08-13T20:02:22.289Z,9.80
2018-08-13T20:04:53.339Z,9.17
2018-08-13T20:07:21.693Z,8.93
2018-08-13T20:09:49.957Z,9.40
2018-08-13T20:12:18.361Z,11.13
2018-08-13T20:14:46.665Z,10.20
2018-08-13T20:17:14.976Z,9.40
2018-08-13T20:19:43.345Z,10.90
2018-08-13T20:22:15.087Z,11.00
2018-08-13T20:24:43.750Z,11.03
2018-08-13T20:27:12.097Z,11.80
2018-08-13T20:29:40.396Z,12.00
2018-08-13T20:32:09.440Z,11.30
2018-08-13T20:34:37.721Z,12.13
2018-08-13T20:37:06.108Z,12.00
2018-08-13T20:39:34.317Z,12.40
2018-08-13T20:42:02.613Z,12.73
2018-08-13T20:44:30.939Z,12.27
2018-08-13T20:46:59.241Z,12.87
2018-08-13T20:49:27.626Z,14.33
2018-08-13T20:51:55.851Z,13.97
2018-08-13T20:54:24.177Z,14.77
2018-08-13T20:56:52.447Z,14.40
2018-08-13T20:59:20.741Z,14.40
2018-08-13T21:01:49.006Z,14.20
2018-08-13T21:04:17.652Z,13.97
2018-08-13T21:06:45.932Z,14.30
2018-08-13T21:09:14.361Z,13.63
2018-08-13T21:11:42.549Z,12.83
2018-08-13T21:14:10.885Z,13.30
2018-08-13T21:16:39.165Z,11.43
2018-08-13T21:19:07.493Z,11.27
2018-08-13T21:21:35.769Z,10.40
2018-08-13T21:24:04.477Z,11.37
2018-08-13T21:26:32.746Z,12.40
2018-08-13T21:29:01.022Z,11.83
2018-08-13T21:31:29.322Z,11.67
2018-08-13T21:33:57.634Z,10.47
2018-08-13T21:36:25.958Z,11.97
2018-08-13T21:38:55.367Z,12.50
2018-08-13T21:41:24.242Z,14.30
2018-08-13T21:43:53.516Z,13.37
2018-08-13T21:46:21.839Z,16.13
2018-08-13T21:48:50.323Z,15.53
2018-08-13T21:51:18.641Z,17.73
2018-08-13T21:53:46.912Z,17.30
2018-08-13T21:56:15.349Z,16.77
2018-08-13T21:58:43.625Z,19.67
2018-08-13T22:01:17.254Z,20.90
2018-08-13T22:03:45.534Z,21.80
2018-08-13T22:06:13.872Z,23.90
2018-08-13T22:08:42.405Z,23.23
2018-08-13T22:11:11.309Z,23.30
2018-08-13T22:13:39.637Z,25.03
2018-08-13T22:16:07.933Z,24.90
2018-08-13T22:18:36.204Z,23.53
2018-08-13T22:21:06.021Z,25.37
2018-08-13T22:23:34.305Z,28.00
2018-08-13T22:26:02.633Z,27.17
2018-08-13T22:28:30.912Z,27.33
2018-08-13T22:30:59.440Z,27.43
2018-08-13T22:33:27.713Z,24.70
2018-08-13T22:35:55.993Z,27.20
2018-08-13T22:38:24.277Z,29.40
2018-08-13T22:40:52.605Z,28.70
2018-08-13T22:43:21.997Z,26.87
2018-08-13T22:45:50.250Z,26.53
2018-08-13T22:48:18.553Z,26.73
2018-08-13T22:50:46.862Z,26.10
2018-08-13T22:53:15.159Z,27.33
2018-08-13T22:55:43.425Z,28.90
2018-08-13T22:58:11.883Z,29.37
2018-08-13T23:00:40.219Z,27.33
2018-08-13T23:03:08.480Z,28.53
2018-08-13T23:05:36.765Z,27.17
2018-08-13T23:08:05.266Z,27.27
2018-08-13T23:10:33.549Z,29.63
2018-08-13T23:13:01.885Z,30.00
2018-08-13T23:15:30.204Z,29.33
2018-08-13T23:17:58.505Z,26.17
2018-08-13T23:20:28.601Z,28.60
2018-08-13T23:22:59.080Z,31.30
2018-08-13T23:25:28.009Z,31.33
2018-08-13T23:27:57.428Z,31.47
2018-08-13T23:30:25.769Z,32.30
2018-08-13T23:32:55.061Z,31.00
2018-08-13T23:35:24.069Z,34.60
2018-08-13T23:37:52.654Z,33.90
2018-08-13T23:40:20.999Z,33.83
2018-08-13T23:42:49.313Z,36.63
2018-08-13T23:45:20.929Z,37.77
2018-08-13T23:47:49.233Z,37.17
2018-08-13T23:50:19.596Z,39.00
2018-08-13T23:52:48.980Z,41.10
2018-08-13T23:55:32.633Z,40.97
2018-08-13T23:58:01.459Z,43.87
